Time;durP1;ratioP1;P1;durP2;ratioP2;P2;SDS_P1;SDS_P2;PMS_P1;PMS_P2;Temp;Humidity;BMP_temperature;BMP_pressure;BME280_temperature;BME280_humidity;BME280_pressure;Samples;Min_cycle;Max_cycle;Signal;HPM_P1;HPM_P2
2022/02/16 00:02:25;;;;;;;9.97;6.07;;;9.60;99.90;;;;;;5017984;28;20295;-86
2022/02/16 00:04:50;;;;;;;12.83;5.80;;;9.70;99.90;;;;;;5035240;28;20759;-87
2022/02/16 00:07:16;;;;;;;9.33;5.90;;;9.70;99.90;;;;;;5035512;28;20177;-86
2022/02/16 00:09:41;;;;;;;7.13;5.10;;;9.60;99.90;;;;;;5017641;28;20179;-87
2022/02/16 00:12:08;;;;;;;11.90;5.30;;;9.70;99.90;;;;;;5017542;28;20206;-85
2022/02/16 00:14:34;;;;;;;6.97;5.13;;;9.70;99.90;;;;;;5035140;28;20177;-86
2022/02/16 00:17:00;;;;;;;8.70;5.53;;;9.70;99.90;;;;;;5017714;28;20233;-87
2022/02/16 00:19:26;;;;;;;11.13;5.33;;;9.80;99.90;;;;;;5017426;28;20204;-87
2022/02/16 00:21:52;;;;;;;12.17;5.80;;;9.90;99.90;;;;;;5014234;28;20185;-86
2022/02/16 00:24:18;;;;;;;9.87;4.70;;;10.00;99.90;;;;;;5007670;28;20180;-87
2022/02/16 00:26:44;;;;;;;10.07;5.10;;;9.90;99.90;;;;;;4997430;28;20227;-87
2022/02/16 00:29:13;;;;;;;8.50;5.10;;;9.80;99.90;;;;;;4997526;28;20274;-87
2022/02/16 00:31:40;;;;;;;7.23;4.80;;;9.80;99.90;;;;;;4999788;28;20200;-87
2022/02/16 00:34:06;;;;;;;7.33;4.97;;;9.80;99.90;;;;;;5033812;28;20208;-86
2022/02/16 00:36:32;;;;;;;10.23;5.30;;;9.70;99.90;;;;;;5034687;28;20191;-87
2022/02/16 00:38:58;;;;;;;8.30;5.50;;;9.70;99.90;;;;;;5034708;28;20196;-87
2022/02/16 00:41:23;;;;;;;7.87;4.97;;;9.80;99.90;;;;;;5016891;28;20185;-87
2022/02/16 00:43:49;;;;;;;8.03;6.30;;;9.80;99.90;;;;;;5008047;28;20264;-87
2022/02/16 00:46:15;;;;;;;8.83;5.03;;;9.80;99.90;;;;;;5016905;28;20602;-86
2022/02/16 00:48:40;;;;;;;8.33;4.93;;;9.70;99.90;;;;;;5002216;28;20313;-87
2022/02/16 00:51:06;;;;;;;6.00;4.43;;;9.70;99.90;;;;;;5014714;28;20521;-87
2022/02/16 00:53:32;;;;;;;6.07;4.43;;;9.70;99.90;;;;;;4997475;28;20641;-86
2022/02/16 00:55:58;;;;;;;7.90;4.27;;;9.80;99.90;;;;;;5014394;28;20289;-87
2022/02/16 00:58:24;;;;;;;5.23;3.90;;;9.80;99.90;;;;;;5014676;28;20198;-87
2022/02/16 01:00:49;;;;;;;5.83;4.73;;;9.80;99.90;;;;;;4997042;28;20247;-87
2022/02/16 01:03:15;;;;;;;6.60;4.10;;;9.80;99.90;;;;;;4997171;28;20273;-86
2022/02/16 01:05:41;;;;;;;5.87;3.93;;;9.70;99.90;;;;;;4996482;28;20300;-87
2022/02/16 01:08:09;;;;;;;6.67;4.30;;;9.80;99.90;;;;;;5014578;28;20183;-88
2022/02/16 01:10:35;;;;;;;5.77;4.07;;;9.80;99.90;;;;;;4996741;28;20222;-86
2022/02/16 01:13:00;;;;;;;8.07;3.63;;;9.80;99.90;;;;;;4996971;28;20181;-87
2022/02/16 01:15:26;;;;;;;6.93;4.20;;;9.80;99.90;;;;;;4997018;28;20184;-87
2022/02/16 01:17:52;;;;;;;6.77;4.17;;;9.70;99.90;;;;;;5014007;28;20195;-86
2022/02/16 01:20:17;;;;;;;7.33;4.43;;;9.70;99.90;;;;;;4996937;28;20346;-87
2022/02/16 01:22:43;;;;;;;6.83;3.90;;;9.80;99.90;;;;;;5014179;28;20256;-88
2022/02/16 01:25:09;;;;;;;4.53;3.97;;;9.80;99.90;;;;;;4996665;28;20551;-87
2022/02/16 01:27:34;;;;;;;6.67;4.27;;;10.00;99.90;;;;;;4996784;28;20187;-87
2022/02/16 01:30:00;;;;;;;7.80;4.10;;;9.90;99.90;;;;;;4996645;28;20180;-87
2022/02/16 01:32:25;;;;;;;5.47;3.70;;;9.90;99.90;;;;;;4996621;28;20272;-88
2022/02/16 01:34:51;;;;;;;5.20;3.40;;;9.90;99.90;;;;;;4996691;28;20595;-88
2022/02/16 01:37:16;;;;;;;4.13;3.63;;;10.00;99.90;;;;;;5013798;28;20176;-87
2022/02/16 01:39:42;;;;;;;4.23;3.50;;;9.90;99.90;;;;;;5014277;28;20216;-87
2022/02/16 01:42:14;;;;;;;7.07;3.67;;;9.80;99.90;;;;;;4996569;28;20223;-87
2022/02/16 01:44:39;;;;;;;3.93;3.50;;;9.90;99.90;;;;;;4996301;28;20192;-83
2022/02/16 01:47:05;;;;;;;6.87;3.43;;;10.00;99.90;;;;;;4996235;28;20181;-86
2022/02/16 01:49:32;;;;;;;5.93;3.40;;;10.00;99.90;;;;;;4996199;28;20289;-86
2022/02/16 01:51:58;;;;;;;4.07;3.50;;;10.00;99.90;;;;;;4995955;28;20524;-85
2022/02/16 01:54:24;;;;;;;5.63;4.13;;;10.00;99.90;;;;;;4996250;28;20634;-86
2022/02/16 01:56:50;;;;;;;5.53;3.97;;;10.00;99.90;;;;;;5013702;28;20256;-87
2022/02/16 01:59:17;;;;;;;6.57;3.93;;;10.00;99.90;;;;;;4996317;28;20311;-87
2022/02/16 02:01:43;;;;;;;5.10;3.93;;;10.00;99.90;;;;;;4996009;28;20319;-86
2022/02/16 02:04:09;;;;;;;5.73;4.20;;;10.10;99.90;;;;;;5013815;28;20253;-87
2022/02/16 02:06:35;;;;;;;4.97;3.70;;;10.10;99.90;;;;;;4995726;28;20272;-87
2022/02/16 02:09:01;;;;;;;9.70;4.10;;;10.20;99.90;;;;;;4996086;28;20648;-87
2022/02/16 02:11:26;;;;;;;5.73;4.10;;;10.30;99.90;;;;;;4996160;28;20547;-87
2022/02/16 02:13:55;;;;;;;4.87;3.80;;;10.30;99.90;;;;;;5013454;28;20173;-88
2022/02/16 02:16:21;;;;;;;6.73;4.33;;;10.20;99.90;;;;;;4995215;28;20188;-88
2022/02/16 02:18:46;;;;;;;6.50;4.20;;;10.20;99.90;;;;;;5013295;28;20563;-87
2022/02/16 02:21:12;;;;;;;4.83;4.30;;;10.10;99.90;;;;;;4995844;28;20177;-86
2022/02/16 02:23:37;;;;;;;5.33;4.53;;;10.10;99.90;;;;;;4995818;28;20184;-86
2022/02/16 02:26:03;;;;;;;4.83;4.30;;;10.10;99.90;;;;;;5013421;28;20204;-85
2022/02/16 02:28:29;;;;;;;4.70;3.70;;;10.00;99.90;;;;;;4995812;28;20181;-87
2022/02/16 02:30:55;;;;;;;6.70;4.30;;;10.00;99.90;;;;;;4995869;28;20234;-84
2022/02/16 02:33:21;;;;;;;5.20;4.37;;;10.00;99.90;;;;;;4995910;28;20244;-85
2022/02/16 02:35:47;;;;;;;4.13;3.43;;;10.00;99.90;;;;;;5013201;28;20205;-88
2022/02/16 02:38:13;;;;;;;4.20;3.53;;;10.10;99.90;;;;;;4995821;28;20185;-86
2022/02/16 02:40:39;;;;;;;5.63;3.47;;;10.10;99.90;;;;;;4995861;28;20225;-86
2022/02/16 02:43:06;;;;;;;4.37;3.60;;;10.00;99.90;;;;;;4995775;28;20192;-85
2022/02/16 02:45:32;;;;;;;6.50;3.53;;;10.00;99.90;;;;;;4995855;28;20184;-85
2022/02/16 02:47:58;;;;;;;5.53;3.40;;;10.00;99.90;;;;;;4995519;28;20169;-83
2022/02/16 02:50:23;;;;;;;5.30;3.43;;;10.10;99.90;;;;;;4995763;28;20194;-85
2022/02/16 02:52:49;;;;;;;4.40;3.30;;;10.10;99.90;;;;;;4995812;28;20240;-85
2022/02/16 02:55:15;;;;;;;3.53;3.00;;;10.00;99.90;;;;;;5013508;28;20188;-87
2022/02/16 02:57:41;;;;;;;3.97;3.10;;;10.00;99.90;;;;;;4995542;28;20240;-87
2022/02/16 03:00:09;;;;;;;4.27;3.27;;;9.90;99.90;;;;;;4995759;28;20283;-88
2022/02/16 03:02:35;;;;;;;7.57;3.10;;;9.90;99.90;;;;;;5012135;28;20201;-88
2022/02/16 03:05:03;;;;;;;4.07;3.20;;;10.10;99.90;;;;;;5012827;28;20541;-87
2022/02/16 03:07:29;;;;;;;3.30;2.73;;;10.10;99.90;;;;;;4995611;28;20186;-88
2022/02/16 03:09:55;;;;;;;4.30;2.73;;;10.10;99.90;;;;;;5013058;28;20217;-86
2022/02/16 03:12:21;;;;;;;3.93;3.00;;;10.20;99.90;;;;;;4995799;28;20192;-86
2022/02/16 03:14:47;;;;;;;5.53;3.47;;;10.20;99.90;;;;;;4995726;28;20213;-88
2022/02/16 03:17:12;;;;;;;4.90;3.60;;;10.20;99.90;;;;;;4995539;28;20184;-86
2022/02/16 03:19:38;;;;;;;8.13;4.37;;;10.20;99.90;;;;;;4995188;28;20217;-86
2022/02/16 03:22:04;;;;;;;9.13;4.93;;;10.20;99.90;;;;;;5012814;28;20181;-85
2022/02/16 03:24:30;;;;;;;12.27;5.90;;;10.20;99.90;;;;;;4995358;28;20261;-86
2022/02/16 03:26:56;;;;;;;11.60;7.23;;;10.10;99.90;;;;;;5013311;28;20271;-86
2022/02/16 03:29:21;;;;;;;10.63;7.33;;;10.10;99.90;;;;;;5016720;28;20181;-86
2022/02/16 03:31:47;;;;;;;15.33;8.40;;;10.10;99.90;;;;;;4999179;28;20255;-86
2022/02/16 03:34:13;;;;;;;12.20;8.17;;;10.10;99.90;;;;;;4998585;28;20224;-86
2022/02/16 03:36:38;;;;;;;15.90;8.80;;;10.00;99.90;;;;;;4999012;28;20188;-89
2022/02/16 03:39:05;;;;;;;11.73;7.97;;;10.00;99.90;;;;;;4998678;28;20571;-86
2022/02/16 03:41:31;;;;;;;16.73;8.33;;;10.00;99.90;;;;;;5016521;28;20173;-83
2022/02/16 03:43:57;;;;;;;12.40;7.67;;;10.00;99.90;;;;;;4998752;28;20191;-86
2022/02/16 03:46:23;;;;;;;11.57;7.33;;;10.10;99.90;;;;;;5016078;28;20170;-84
2022/02/16 03:48:48;;;;;;;8.23;6.23;;;10.10;99.90;;;;;;5015291;28;20185;-85
2022/02/16 03:51:16;;;;;;;11.07;6.23;;;10.00;99.90;;;;;;4998627;28;20181;-85
2022/02/16 03:53:42;;;;;;;8.37;6.07;;;10.00;99.90;;;;;;4998440;28;20498;-85
2022/02/16 03:56:07;;;;;;;8.73;5.77;;;10.10;99.90;;;;;;4998410;28;20185;-85
2022/02/16 03:58:33;;;;;;;8.50;5.70;;;10.10;99.90;;;;;;5015859;28;20510;-86
2022/02/16 04:00:59;;;;;;;9.30;5.70;;;10.00;99.90;;;;;;4998108;28;20235;-86
2022/02/16 04:03:25;;;;;;;7.00;5.37;;;10.10;99.90;;;;;;5015490;28;20192;-86
2022/02/16 04:05:50;;;;;;;7.07;5.17;;;10.10;99.90;;;;;;5015655;28;20165;-86
2022/02/16 04:08:16;;;;;;;8.00;5.23;;;10.10;99.90;;;;;;4998279;28;20180;-85
2022/02/16 04:10:42;;;;;;;6.90;5.10;;;10.00;99.90;;;;;;4998415;28;20765;-85
2022/02/16 04:13:07;;;;;;;7.63;5.50;;;10.00;99.90;;;;;;5015550;28;20179;-84
2022/02/16 04:15:33;;;;;;;11.43;5.97;;;10.10;99.90;;;;;;4998101;28;20232;-86
2022/02/16 04:18:00;;;;;;;8.50;5.37;;;10.10;99.90;;;;;;5015280;28;20592;-87
2022/02/16 04:20:26;;;;;;;12.57;5.80;;;10.20;99.90;;;;;;5015243;28;20309;-86
2022/02/16 04:22:51;;;;;;;8.30;5.43;;;10.10;99.90;;;;;;4998256;28;20263;-85
2022/02/16 04:25:17;;;;;;;9.30;5.77;;;10.00;99.90;;;;;;5015431;28;20204;-86
2022/02/16 04:27:43;;;;;;;8.83;5.57;;;9.90;99.90;;;;;;4997997;28;20188;-87
2022/02/16 04:30:10;;;;;;;9.30;6.10;;;10.00;99.90;;;;;;5015497;28;20660;-87
2022/02/16 04:32:37;;;;;;;10.80;7.00;;;10.00;99.90;;;;;;4997404;28;20185;-85
2022/02/16 04:35:03;;;;;;;12.93;7.40;;;10.00;99.90;;;;;;4997523;28;20208;-85
2022/02/16 04:37:30;;;;;;;11.40;6.63;;;10.00;99.90;;;;;;4997602;28;20177;-86
2022/02/16 04:39:56;;;;;;;14.97;6.53;;;10.00;99.90;;;;;;4996425;28;20219;-86
2022/02/16 04:42:23;;;;;;;12.97;6.40;;;10.00;99.90;;;;;;4997497;28;20315;-86
2022/02/16 04:44:48;;;;;;;11.17;5.93;;;9.90;99.90;;;;;;4997456;28;20262;-86
2022/02/16 04:47:14;;;;;;;10.27;6.10;;;9.90;99.90;;;;;;4997132;28;20232;-86
2022/02/16 04:49:39;;;;;;;9.83;5.77;;;9.90;99.90;;;;;;5015029;28;20652;-87
2022/02/16 04:52:05;;;;;;;9.37;5.07;;;10.10;99.90;;;;;;4997271;28;20185;-86
2022/02/16 04:54:32;;;;;;;8.73;5.20;;;10.10;99.90;;;;;;4997441;28;20177;-81
2022/02/16 04:56:58;;;;;;;9.33;5.43;;;10.20;99.90;;;;;;4996405;28;20256;-81
2022/02/16 04:59:23;;;;;;;9.33;5.20;;;10.20;99.90;;;;;;4996240;28;20316;-85
2022/02/16 05:01:49;;;;;;;7.87;4.90;;;10.20;99.90;;;;;;4996956;28;20248;-87
2022/02/16 05:04:14;;;;;;;7.43;5.20;;;10.20;99.90;;;;;;4997125;28;20204;-85
2022/02/16 05:06:41;;;;;;;10.23;5.30;;;10.20;99.90;;;;;;4997212;28;20637;-87
2022/02/16 05:09:11;;;;;;;8.53;5.77;;;10.30;99.90;;;;;;4997476;28;20191;-86
2022/02/16 05:11:36;;;;;;;8.77;5.37;;;10.20;99.90;;;;;;4996912;28;20577;-86
2022/02/16 05:14:02;;;;;;;6.83;4.70;;;10.10;99.90;;;;;;5014343;28;20202;-85
2022/02/16 05:16:28;;;;;;;7.60;5.00;;;10.00;99.90;;;;;;5014032;28;20182;-86
2022/02/16 05:18:55;;;;;;;7.27;4.87;;;10.10;99.90;;;;;;4996919;28;20267;-88
2022/02/16 05:21:24;;;;;;;6.27;4.50;;;10.10;99.90;;;;;;4996760;28;20177;-84
2022/02/16 05:23:49;;;;;;;6.27;4.13;;;10.20;99.90;;;;;;4996816;28;20231;-84
2022/02/16 05:26:15;;;;;;;5.50;4.10;;;10.20;99.90;;;;;;5014191;28;20631;-86
2022/02/16 05:28:41;;;;;;;6.70;4.77;;;10.20;99.90;;;;;;5014299;28;20192;-86
2022/02/16 05:31:06;;;;;;;5.67;3.40;;;10.20;99.90;;;;;;5013517;28;20189;-86
2022/02/16 05:33:32;;;;;;;4.80;3.70;;;10.20;99.90;;;;;;5014354;28;20189;-85
2022/02/16 05:35:58;;;;;;;4.03;3.40;;;10.20;99.90;;;;;;4996252;28;20532;-83
2022/02/16 05:38:23;;;;;;;6.47;4.27;;;10.20;99.90;;;;;;4998488;28;20185;-85
2022/02/16 05:40:49;;;;;;;5.13;3.37;;;10.30;99.90;;;;;;5025125;28;20216;-85
2022/02/16 05:43:15;;;;;;;5.63;3.50;;;10.30;99.90;;;;;;5002487;28;20199;-85
2022/02/16 05:45:41;;;;;;;5.83;4.17;;;10.40;99.90;;;;;;5003917;28;20201;-86
2022/02/16 05:48:07;;;;;;;5.33;3.67;;;10.40;99.90;;;;;;5009738;28;20184;-86
2022/02/16 05:50:33;;;;;;;5.23;3.83;;;10.30;99.90;;;;;;5015987;28;20239;-85
2022/02/16 05:52:59;;;;;;;5.63;4.10;;;10.30;99.90;;;;;;5033501;28;20165;-84
2022/02/16 05:55:25;;;;;;;5.30;3.87;;;10.30;99.90;;;;;;5033257;28;20272;-85
2022/02/16 05:57:50;;;;;;;5.07;3.73;;;10.20;99.90;;;;;;5016095;28;20524;-86
2022/02/16 06:00:16;;;;;;;4.10;3.10;;;10.30;99.90;;;;;;5007806;28;20220;-85
2022/02/16 06:02:42;;;;;;;4.23;3.17;;;10.30;99.90;;;;;;5015581;28;20231;-86
2022/02/16 06:05:08;;;;;;;4.67;3.60;;;10.30;99.90;;;;;;5033130;28;20184;-86
2022/02/16 06:07:33;;;;;;;4.93;3.40;;;10.40;99.90;;;;;;5014652;28;20180;-86
2022/02/16 06:09:59;;;;;;;4.53;3.40;;;10.40;99.90;;;;;;5015823;28;20180;-85
2022/02/16 06:12:25;;;;;;;5.17;3.67;;;10.40;99.90;;;;;;5015290;28;20177;-85
2022/02/16 06:14:50;;;;;;;6.37;4.03;;;10.40;99.90;;;;;;5032455;28;20227;-85
2022/02/16 06:17:16;;;;;;;4.30;2.93;;;10.40;99.90;;;;;;5015082;28;20176;-85
2022/02/16 06:19:42;;;;;;;4.87;3.60;;;10.40;99.90;;;;;;5015517;28;20208;-85
2022/02/16 06:22:08;;;;;;;4.87;3.53;;;10.50;99.90;;;;;;5015773;28;20651;-84
2022/02/16 06:24:36;;;;;;;5.53;3.57;;;10.50;99.90;;;;;;5015900;28;20218;-83
2022/02/16 06:27:02;;;;;;;4.53;3.20;;;10.50;99.90;;;;;;5015984;28;20262;-81
2022/02/16 06:29:28;;;;;;;7.10;3.53;;;10.50;99.90;;;;;;5009272;28;20240;-86
2022/02/16 06:31:53;;;;;;;5.77;3.73;;;10.50;99.90;;;;;;5013647;28;20177;-86
2022/02/16 06:34:21;;;;;;;3.70;3.10;;;10.60;99.90;;;;;;5012421;28;20588;-86
2022/02/16 06:36:47;;;;;;;3.93;3.27;;;10.60;99.90;;;;;;5013539;28;20173;-84
2022/02/16 06:39:13;;;;;;;4.90;3.10;;;10.50;99.90;;;;;;5005546;28;20673;-85
2022/02/16 06:41:38;;;;;;;4.73;2.73;;;10.60;99.90;;;;;;5003376;28;20275;-86
2022/02/16 06:44:04;;;;;;;3.63;2.90;;;10.60;99.90;;;;;;5001287;28;20227;-84
2022/02/16 06:46:30;;;;;;;2.93;2.63;;;10.70;99.90;;;;;;5013695;28;20177;-86
2022/02/16 06:48:57;;;;;;;4.67;2.87;;;10.80;99.90;;;;;;5015218;28;20189;-86
2022/02/16 06:51:22;;;;;;;2.90;2.40;;;10.80;99.90;;;;;;5016178;28;20183;-86
2022/02/16 06:53:55;;;;;;;3.30;2.50;;;10.80;99.90;;;;;;5015936;28;20181;-86
2022/02/16 06:56:22;;;;;;;3.00;2.70;;;10.90;99.90;;;;;;5015996;28;20660;-86
2022/02/16 06:58:48;;;;;;;3.47;2.50;;;10.90;99.90;;;;;;5015736;28;20742;-85
2022/02/16 07:01:13;;;;;;;5.07;2.33;;;10.90;99.90;;;;;;5006594;28;20224;-85
2022/02/16 07:03:39;;;;;;;2.60;2.20;;;10.90;99.90;;;;;;5001545;28;20626;-85
2022/02/16 07:06:06;;;;;;;2.87;2.57;;;11.00;99.90;;;;;;5003521;28;20188;-85
2022/02/16 07:08:31;;;;;;;3.43;2.40;;;11.00;99.90;;;;;;5002315;28;20630;-86
2022/02/16 07:11:03;;;;;;;2.70;2.20;;;11.00;99.90;;;;;;5017422;28;20169;-85
2022/02/16 07:13:29;;;;;;;3.60;2.20;;;11.00;99.90;;;;;;4999743;28;20173;-85
2022/02/16 07:15:58;;;;;;;5.03;2.70;;;11.00;99.90;;;;;;5000124;28;20185;-86
2022/02/16 07:18:29;;;;;;;4.00;2.30;;;11.00;99.90;;;;;;4999349;28;20181;-85
2022/02/16 07:20:55;;;;;;;3.57;2.17;;;11.00;99.90;;;;;;5016445;28;20188;-85
2022/02/16 07:23:22;;;;;;;3.63;2.70;;;11.10;99.90;;;;;;5017237;28;20185;-85
2022/02/16 07:25:48;;;;;;;3.93;2.70;;;11.00;99.90;;;;;;5022287;28;20192;-85
2022/02/16 07:28:13;;;;;;;4.00;2.43;;;11.10;99.90;;;;;;5017460;28;20192;-85
2022/02/16 07:30:39;;;;;;;3.03;2.60;;;11.20;99.90;;;;;;5036510;28;20185;-85
2022/02/16 07:33:04;;;;;;;5.40;2.37;;;11.20;99.90;;;;;;5018687;28;20588;-85
2022/02/16 07:35:30;;;;;;;4.77;2.80;;;11.30;99.90;;;;;;5018154;28;20694;-86
2022/02/16 07:37:57;;;;;;;3.80;2.30;;;11.30;99.90;;;;;;5036030;28;20165;-84
2022/02/16 07:40:23;;;;;;;4.57;2.40;;;11.30;99.90;;;;;;5017663;28;20224;-84
2022/02/16 07:42:49;;;;;;;3.07;2.30;;;11.40;99.90;;;;;;5017972;28;20200;-85
2022/02/16 07:45:15;;;;;;;4.20;2.50;;;11.30;99.90;;;;;;5036107;28;20169;-84
2022/02/16 07:47:40;;;;;;;2.77;2.30;;;11.40;99.90;;;;;;5018115;28;20177;-85
2022/02/16 07:50:07;;;;;;;3.37;2.37;;;11.40;99.90;;;;;;5035649;28;20243;-85
2022/02/16 07:52:37;;;;;;;2.40;2.17;;;11.50;99.90;;;;;;5017955;28;20173;-85
2022/02/16 07:55:03;;;;;;;2.73;2.43;;;11.60;99.90;;;;;;5017795;28;20183;-86
2022/02/16 07:57:28;;;;;;;2.53;2.33;;;11.60;99.90;;;;;;5035635;28;20244;-85
2022/02/16 07:59:55;;;;;;;2.40;1.67;;;11.70;99.90;;;;;;5017695;28;20697;-85
2022/02/16 08:02:21;;;;;;;4.23;1.80;;;11.70;99.90;;;;;;5035640;28;20200;-85
2022/02/16 10:56:51;;;;;;;12.93;3.97;;;13.00;99.90;;;;;;5299069;23;20235;-89
2022/02/16 10:59:18;;;;;;;12.70;4.50;;;13.10;99.90;;;;;;4979656;28;20220;-89
2022/02/16 11:01:44;;;;;;;12.80;4.70;;;13.10;99.90;;;;;;4980194;28;20190;-89
2022/02/16 11:04:13;;;;;;;12.83;4.97;;;13.10;99.90;;;;;;4979732;28;20215;-89
2022/02/16 11:06:47;;;;;;;14.90;5.10;;;13.00;99.90;;;;;;4980069;28;20182;-89
2022/02/16 11:09:20;;;;;;;11.33;5.20;;;13.00;99.90;;;;;;4980121;28;20181;-89
2022/02/16 11:11:47;;;;;;;14.10;5.93;;;13.00;99.90;;;;;;4980117;28;20192;-89
2022/02/16 11:14:14;;;;;;;13.77;6.20;;;13.10;99.90;;;;;;4979924;28;20635;-89
2022/02/16 11:16:41;;;;;;;12.40;4.90;;;13.10;99.90;;;;;;4980330;28;20183;-90
2022/02/16 11:19:26;;;;;;;15.87;4.63;;;13.00;99.90;;;;;;4979528;28;20215;-89
2022/02/16 11:22:00;;;;;;;12.30;4.33;;;13.10;99.90;;;;;;4996145;28;20193;-88
2022/02/16 11:24:31;;;;;;;16.67;5.03;;;13.00;99.90;;;;;;4995925;28;20186;-89
2022/02/16 11:26:56;;;;;;;18.67;4.87;;;13.10;99.90;;;;;;4980029;28;20193;-88
2022/02/16 11:29:25;;;;;;;18.07;4.73;;;13.20;99.90;;;;;;4980085;28;20174;-88
2022/02/16 11:32:22;;;;;;;13.57;3.63;;;13.20;99.90;;;;;;4995720;28;20185;-88
2022/02/16 11:35:16;;;;;;;16.77;4.17;;;13.10;99.90;;;;;;4995695;28;20186;-87
2022/02/16 11:37:43;;;;;;;22.97;5.47;;;13.10;99.90;;;;;;4979447;28;20182;-88
2022/02/16 11:40:10;;;;;;;18.33;3.60;;;13.20;99.90;;;;;;4979370;28;20641;-88
2022/02/16 11:42:51;;;;;;;16.50;3.93;;;13.20;99.90;;;;;;4979478;28;20176;-88
2022/02/16 11:45:36;;;;;;;21.27;4.90;;;13.30;99.90;;;;;;4979851;28;20214;-88
2022/02/16 11:48:01;;;;;;;18.33;4.13;;;13.40;99.90;;;;;;4978906;28;20192;-88
2022/02/16 11:50:27;;;;;;;19.13;4.40;;;13.50;99.90;;;;;;4979242;28;20214;-88
2022/02/16 11:52:57;;;;;;;18.67;5.03;;;13.60;99.90;;;;;;4995736;28;20247;-87
2022/02/16 11:55:27;;;;;;;15.53;4.30;;;13.60;99.90;;;;;;4978831;28;20189;-88
2022/02/16 11:58:02;;;;;;;18.63;4.30;;;13.70;99.90;;;;;;4979096;28;20178;-88
2022/02/16 12:00:28;;;;;;;15.73;3.90;;;13.60;99.90;;;;;;4995399;28;20237;-89
2022/02/16 12:02:57;;;;;;;17.07;4.50;;;13.50;99.90;;;;;;4995142;28;20559;-89
2022/02/16 12:05:57;;;;;;;23.37;4.27;;;13.40;99.90;;;;;;4995469;28;20182;-88
2022/02/16 12:08:29;;;;;;;17.97;4.03;;;13.50;99.90;;;;;;4994984;28;20183;-89
2022/02/16 12:11:03;;;;;;;22.00;4.30;;;13.60;99.90;;;;;;4995163;28;20630;-88
2022/02/16 12:13:35;;;;;;;22.17;4.40;;;13.70;99.90;;;;;;4978845;28;20181;-88
2022/02/16 12:16:13;;;;;;;21.93;3.70;;;13.70;99.90;;;;;;4978654;28;20183;-88
2022/02/16 12:18:41;;;;;;;16.57;3.60;;;13.60;99.90;;;;;;4978598;28;20183;-88
2022/02/16 12:21:07;;;;;;;14.10;4.20;;;13.70;99.90;;;;;;4978519;28;20229;-88
2022/02/16 12:23:41;;;;;;;18.37;3.67;;;13.70;99.90;;;;;;4978903;28;20652;-88
2022/02/16 12:26:17;;;;;;;24.90;5.77;;;13.60;99.90;;;;;;4978611;28;20606;-88
2022/02/16 12:28:59;;;;;;;20.33;5.90;;;13.60;99.90;;;;;;4978550;28;20217;-88
2022/02/16 12:31:27;;;;;;;21.30;4.67;;;13.70;99.90;;;;;;4978399;28;20194;-88
2022/02/16 12:34:01;;;;;;;16.37;4.23;;;13.90;99.90;;;;;;4978527;28;20185;-88
2022/02/16 12:36:28;;;;;;;18.43;3.50;;;14.00;99.90;;;;;;4978203;28;20188;-88
2022/02/16 12:38:57;;;;;;;12.63;3.60;;;14.00;99.90;;;;;;4978196;28;20180;-88
2022/02/16 12:41:23;;;;;;;20.43;5.33;;;13.90;99.90;;;;;;4997754;28;20224;-88
2022/02/16 12:43:57;;;;;;;13.83;3.97;;;13.80;99.90;;;;;;4997906;28;20184;-88
2022/02/16 12:46:25;;;;;;;12.60;3.93;;;14.00;99.90;;;;;;4997241;28;20189;-88
2022/02/16 12:48:51;;;;;;;16.07;3.63;;;14.00;99.90;;;;;;4997514;28;20271;-88
2022/02/16 12:51:36;;;;;;;16.87;3.53;;;14.00;99.90;;;;;;4997487;28;20181;-87
2022/02/16 12:54:06;;;;;;;15.27;3.37;;;14.00;99.90;;;;;;4997624;28;20184;-87
2022/02/16 12:56:34;;;;;;;13.33;3.60;;;13.90;99.90;;;;;;4997068;28;20208;-88
2022/02/16 12:59:23;;;;;;;16.43;3.57;;;13.90;99.90;;;;;;4997542;28;20177;-88
2022/02/16 13:01:51;;;;;;;14.30;3.10;;;13.70;99.90;;;;;;4997304;28;20192;-88
2022/02/16 13:04:16;;;;;;;12.77;3.33;;;13.80;99.90;;;;;;4997423;28;20179;-88
2022/02/16 13:06:46;;;;;;;19.97;3.90;;;13.70;99.90;;;;;;4997292;28;20250;-88
2022/02/16 13:09:13;;;;;;;15.87;3.40;;;13.80;99.90;;;;;;4997244;28;20177;-88
2022/02/16 13:11:51;;;;;;;17.00;3.90;;;13.90;99.90;;;;;;4997269;28;20208;-88
2022/02/16 13:14:20;;;;;;;20.87;4.67;;;13.80;99.90;;;;;;4997274;28;20181;-88
2022/02/16 13:17:00;;;;;;;17.87;4.77;;;13.80;99.90;;;;;;4997310;28;20206;-88
2022/02/16 13:19:49;;;;;;;23.13;4.67;;;13.80;99.90;;;;;;4997555;28;20269;-88
2022/02/16 13:22:21;;;;;;;18.87;4.20;;;13.90;99.90;;;;;;4997427;28;20178;-88
2022/02/16 13:24:56;;;;;;;20.87;4.63;;;14.00;99.90;;;;;;4997416;28;20178;-88
2022/02/16 13:27:25;;;;;;;19.27;4.47;;;14.10;99.90;;;;;;4996923;28;20175;-87
2022/02/16 13:30:22;;;;;;;20.33;4.00;;;14.10;99.90;;;;;;4996549;28;20275;-88
2022/02/16 13:32:51;;;;;;;17.37;4.93;;;14.00;99.90;;;;;;4981121;28;20200;-88
2022/02/16 13:35:22;;;;;;;21.07;5.13;;;14.00;99.90;;;;;;4997074;28;20266;-87
2022/02/16 13:37:56;;;;;;;20.63;4.33;;;14.00;99.90;;;;;;4996596;28;20190;-88
2022/02/16 13:40:22;;;;;;;25.27;4.73;;;14.20;99.90;;;;;;5013169;28;20301;-88
2022/02/16 13:43:00;;;;;;;28.23;5.40;;;14.40;99.90;;;;;;4996820;28;20239;-88
2022/02/16 13:45:32;;;;;;;29.97;4.90;;;14.40;99.90;;;;;;4996667;28;20266;-88
2022/02/16 13:47:58;;;;;;;22.53;4.83;;;14.50;99.90;;;;;;4996390;28;20184;-88
2022/02/16 13:50:42;;;;;;;17.93;4.10;;;14.50;99.90;;;;;;5012810;28;20192;-88
2022/02/16 13:53:10;;;;;;;22.03;4.30;;;14.40;99.90;;;;;;4996418;28;20236;-88
2022/02/16 13:55:48;;;;;;;21.03;4.27;;;14.40;99.90;;;;;;4996621;28;20205;-88
2022/02/16 13:58:16;;;;;;;25.83;4.10;;;14.50;99.90;;;;;;4996237;28;20693;-88
2022/02/16 14:00:42;;;;;;;21.50;4.43;;;14.60;99.90;;;;;;4996536;28;20281;-87
2022/02/16 14:03:14;;;;;;;23.00;5.43;;;14.70;99.90;;;;;;4996656;28;20169;-88
2022/02/16 14:05:40;;;;;;;21.83;4.50;;;14.70;99.90;;;;;;4996749;28;20181;-87
2022/02/16 14:08:06;;;;;;;26.53;5.23;;;14.80;99.90;;;;;;4996593;28;20184;-87
2022/02/16 14:10:35;;;;;;;19.63;4.13;;;15.00;99.90;;;;;;4996523;28;20187;-88
2022/02/16 14:13:02;;;;;;;23.30;5.27;;;15.20;99.90;;;;;;4996144;28;20279;-88
2022/02/16 14:15:28;;;;;;;21.23;4.83;;;15.40;99.90;;;;;;4996361;28;20173;-88
2022/02/16 14:17:53;;;;;;;18.40;4.13;;;15.40;99.90;;;;;;4995976;28;20231;-88
2022/02/16 14:20:21;;;;;;;24.97;5.07;;;15.30;99.90;;;;;;4995982;28;20223;-88
2022/02/16 14:22:47;;;;;;;18.70;4.60;;;15.10;99.90;;;;;;4996254;28;20175;-88
2022/02/16 14:25:14;;;;;;;17.93;4.47;;;14.80;99.90;;;;;;4996067;28;20180;-88
2022/02/16 14:27:40;;;;;;;18.70;4.43;;;14.70;99.90;;;;;;4995759;28;20172;-88
2022/02/16 14:30:09;;;;;;;24.67;4.97;;;14.50;99.90;;;;;;4996225;28;20262;-88
2022/02/16 14:32:35;;;;;;;25.57;4.67;;;14.40;99.90;;;;;;4996082;28;20187;-87
2022/02/16 14:35:02;;;;;;;24.00;4.97;;;14.50;99.90;;;;;;4996171;28;20188;-87
2022/02/16 14:37:31;;;;;;;19.53;4.47;;;14.50;99.90;;;;;;4995904;28;20176;-88
2022/02/16 14:39:57;;;;;;;32.87;5.50;;;14.50;99.90;;;;;;4995954;28;20211;-87
2022/02/16 14:42:23;;;;;;;20.97;4.87;;;14.50;99.90;;;;;;4995917;28;20688;-87
2022/02/16 14:44:49;;;;;;;22.13;5.07;;;14.40;99.90;;;;;;4997688;28;20173;-88
2022/02/16 14:47:14;;;;;;;33.43;5.10;;;14.40;99.90;;;;;;5000188;28;20194;-88
2022/02/16 14:49:40;;;;;;;24.43;4.37;;;14.30;99.90;;;;;;5002235;28;20205;-88
2022/02/16 14:52:08;;;;;;;19.60;3.80;;;14.20;99.90;;;;;;4996428;28;20184;-87
2022/02/16 14:54:36;;;;;;;26.97;4.60;;;14.20;99.90;;;;;;4995946;28;20278;-88
2022/02/16 14:57:02;;;;;;;26.50;4.77;;;14.10;99.90;;;;;;4995441;28;20204;-87
2022/02/16 14:59:28;;;;;;;23.77;5.60;;;14.20;99.90;;;;;;4995738;28;20683;-88
2022/02/16 15:02:01;;;;;;;20.37;4.37;;;14.20;99.90;;;;;;4995998;28;20287;-87
2022/02/16 15:04:30;;;;;;;24.17;4.60;;;14.10;99.90;;;;;;4995913;28;20233;-87
2022/02/16 15:06:55;;;;;;;19.90;4.37;;;14.00;99.90;;;;;;4996076;28;20179;-87
2022/02/16 15:09:21;;;;;;;17.03;4.63;;;14.10;99.90;;;;;;4995862;28;20179;-87
2022/02/16 15:11:47;;;;;;;24.90;4.47;;;14.10;99.90;;;;;;4995919;28;20731;-87
2022/02/16 15:14:13;;;;;;;18.27;3.90;;;14.10;99.90;;;;;;4995858;28;20170;-87
2022/02/16 15:16:39;;;;;;;14.33;2.83;;;14.00;99.90;;;;;;4995583;28;20247;-87
2022/02/16 15:19:05;;;;;;;14.63;3.30;;;14.00;99.90;;;;;;4995333;28;20185;-87
2022/02/16 15:21:32;;;;;;;20.37;3.97;;;13.90;99.90;;;;;;4995557;28;20629;-88
2022/02/16 15:24:00;;;;;;;17.20;3.57;;;14.00;99.90;;;;;;4997091;28;20213;-87
2022/02/16 15:26:26;;;;;;;18.80;4.60;;;14.00;99.90;;;;;;4999196;28;20195;-87
2022/02/16 15:28:52;;;;;;;22.83;4.27;;;14.00;99.90;;;;;;4998931;28;20183;-86
2022/02/16 15:31:18;;;;;;;19.90;4.37;;;14.00;99.90;;;;;;4999648;28;20551;-88
2022/02/16 15:33:44;;;;;;;20.63;4.60;;;13.90;99.90;;;;;;4999259;28;20178;-87
2022/02/16 15:36:09;;;;;;;17.23;5.03;;;13.80;99.90;;;;;;4999111;28;20596;-88
2022/02/16 15:38:35;;;;;;;15.20;4.27;;;13.80;99.90;;;;;;4999119;28;20191;-88